createdAt,value
2019-01-31T00:00:30.989Z,7.20
2019-01-31T00:01:30.932Z,6.30
2019-01-31T00:02:30.961Z,7.10
2019-01-31T00:03:30.947Z,6.80
2019-01-31T00:04:30.894Z,6.80
2019-01-31T00:05:30.893Z,8.10
2019-01-31T00:06:30.904Z,5.70
2019-01-31T00:07:30.901Z,5.80
2019-01-31T00:08:30.882Z,6.40
2019-01-31T00:09:30.873Z,7.10
2019-01-31T00:10:30.843Z,7.30
2019-01-31T00:11:30.855Z,8.10
2019-01-31T00:12:30.825Z,7.50
2019-01-31T00:13:30.830Z,6.20
2019-01-31T00:14:30.806Z,7.60
2019-01-31T00:15:30.791Z,7.40
2019-01-31T00:16:30.764Z,9.00
2019-01-31T00:17:30.805Z,7.90
2019-01-31T00:18:30.807Z,6.80
2019-01-31T00:19:30.747Z,6.80
2019-01-31T00:20:30.740Z,5.10
2019-01-31T00:21:30.736Z,10.40
2019-01-31T00:22:30.707Z,8.30
2019-01-31T00:23:30.723Z,7.30
2019-01-31T00:24:30.693Z,8.30
2019-01-31T00:25:30.668Z,8.20
2019-01-31T00:26:30.655Z,5.80
2019-01-31T00:27:30.665Z,9.10
2019-01-31T00:28:30.641Z,6.90
2019-01-31T00:29:30.648Z,7.60
2019-01-31T00:30:30.618Z,8.60
2019-01-31T00:31:30.605Z,7.90
2019-01-31T00:32:30.609Z,6.60
2019-01-31T00:33:30.597Z,8.10
2019-01-31T00:34:30.610Z,7.70
2019-01-31T00:35:30.560Z,7.80
2019-01-31T00:36:30.582Z,9.70
2019-01-31T00:37:30.532Z,8.70
2019-01-31T00:38:30.522Z,7.10
2019-01-31T00:39:30.588Z,7.20
2019-01-31T00:40:30.516Z,6.50
2019-01-31T00:41:30.492Z,7.30
2019-01-31T00:42:30.495Z,9.10
2019-01-31T00:43:30.467Z,7.20
2019-01-31T00:44:30.505Z,9.70
2019-01-31T00:45:30.455Z,7.30
2019-01-31T00:46:30.453Z,9.00
2019-01-31T00:47:30.428Z,8.40
2019-01-31T00:48:30.445Z,9.20
2019-01-31T00:49:30.437Z,7.50
2019-01-31T00:50:30.431Z,9.30
2019-01-31T00:51:30.380Z,7.30
2019-01-31T00:52:30.396Z,7.90
2019-01-31T00:53:30.366Z,7.70
2019-01-31T00:54:30.372Z,8.70
2019-01-31T00:55:30.335Z,9.10
2019-01-31T00:56:30.350Z,7.70
2019-01-31T00:57:30.344Z,11.30
2019-01-31T00:58:30.324Z,8.00
2019-01-31T00:59:30.318Z,6.50
2019-01-31T01:00:30.311Z,8.00
2019-01-31T01:01:30.324Z,8.90
2019-01-31T01:02:30.286Z,8.40
2019-01-31T01:03:30.276Z,8.40
2019-01-31T01:04:30.269Z,9.30
2019-01-31T01:05:30.275Z,11.30
2019-01-31T01:06:30.251Z,9.30
2019-01-31T01:07:30.216Z,8.80
2019-01-31T01:08:30.209Z,8.20
2019-01-31T01:09:30.207Z,10.30
2019-01-31T01:10:30.220Z,9.70
2019-01-31T01:11:30.168Z,10.40
2019-01-31T01:12:30.155Z,8.90
2019-01-31T01:13:30.145Z,9.50
2019-01-31T01:14:30.179Z,7.10
2019-01-31T01:15:30.142Z,7.80
2019-01-31T01:16:30.128Z,9.40
2019-01-31T01:17:30.111Z,7.70
2019-01-31T01:18:30.112Z,9.10
2019-01-31T01:19:30.088Z,9.60
2019-01-31T01:20:30.084Z,7.70
2019-01-31T01:21:30.096Z,8.40
2019-01-31T01:22:30.087Z,9.20
2019-01-31T01:23:30.054Z,10.40
2019-01-31T01:24:30.037Z,10.40
2019-01-31T01:25:30.019Z,9.70
2019-01-31T01:26:30.006Z,10.70
2019-01-31T01:27:30.015Z,9.60
2019-01-31T01:28:30.015Z,10.60
2019-01-31T01:29:29.998Z,11.30
2019-01-31T01:30:29.961Z,10.00
2019-01-31T02:24:53.854Z,11.10
2019-01-31T02:25:31.076Z,11.40
2019-01-31T02:26:31.074Z,11.30
2019-01-31T02:27:31.052Z,8.00
2019-01-31T02:28:31.043Z,10.20
2019-01-31T02:29:31.032Z,9.20
2019-01-31T02:30:31.047Z,9.00
2019-01-31T02:31:31.177Z,9.20
2019-01-31T02:32:31.089Z,7.10
2019-01-31T02:33:31.007Z,12.00
2019-01-31T02:34:30.983Z,9.20
2019-01-31T02:35:31.002Z,9.90
2019-01-31T02:36:31.107Z,10.10
2019-01-31T02:37:30.947Z,13.20
2019-01-31T02:38:30.958Z,9.00
2019-01-31T02:39:42.310Z,11.00
2019-01-31T02:40:31.988Z,11.40
2019-01-31T02:41:30.905Z,10.50
2019-01-31T02:42:30.923Z,9.50
2019-01-31T02:43:30.893Z,10.00
2019-01-31T02:44:30.905Z,13.20
2019-01-31T02:45:30.893Z,9.40
2019-01-31T02:46:30.867Z,9.00
2019-01-31T02:47:30.880Z,11.80
2019-01-31T02:48:30.855Z,9.00
2019-01-31T02:49:30.843Z,9.50
2019-01-31T02:50:30.982Z,13.00
2019-01-31T02:51:30.830Z,10.90
2019-01-31T02:52:30.833Z,11.50
2019-01-31T02:53:30.782Z,11.80
2019-01-31T02:54:30.780Z,11.70
2019-01-31T02:55:30.786Z,10.00
2019-01-31T02:56:30.771Z,8.90
2019-01-31T02:57:30.740Z,9.80
2019-01-31T02:58:30.737Z,8.80
2019-01-31T02:59:30.739Z,11.30
2019-01-31T03:00:30.769Z,10.50
2019-01-31T03:01:30.695Z,9.80
2019-01-31T03:02:30.696Z,9.90
2019-01-31T03:03:30.689Z,11.70
2019-01-31T03:04:30.672Z,11.10
2019-01-31T03:05:30.644Z,11.40
2019-01-31T03:06:30.631Z,9.20
2019-01-31T03:07:30.645Z,13.70
2019-01-31T03:08:30.613Z,10.70
2019-01-31T03:09:30.635Z,12.20
2019-01-31T03:10:30.593Z,8.70
2019-01-31T03:11:30.586Z,10.30
2019-01-31T03:12:30.616Z,12.80
2019-01-31T03:13:30.574Z,10.30
2019-01-31T03:14:30.592Z,10.10
2019-01-31T03:15:30.558Z,10.30
2019-01-31T03:16:30.543Z,8.30
2019-01-31T03:17:30.566Z,9.30
2019-01-31T03:18:30.503Z,9.80
2019-01-31T03:19:30.496Z,10.40
2019-01-31T03:20:30.590Z,9.40
2019-01-31T03:21:30.502Z,9.60
2019-01-31T03:22:30.482Z,9.70
2019-01-31T03:23:30.511Z,11.00
2019-01-31T03:24:30.460Z,9.60
2019-01-31T03:25:30.430Z,12.80
2019-01-31T03:26:30.415Z,10.40
2019-01-31T03:27:30.412Z,11.70
2019-01-31T03:28:30.446Z,9.10
2019-01-31T03:29:30.413Z,9.60
2019-01-31T03:30:30.406Z,9.10
2019-01-31T03:31:30.370Z,11.10
2019-01-31T03:32:30.369Z,9.70
2019-01-31T03:33:30.398Z,11.50
2019-01-31T03:34:30.336Z,10.70
2019-01-31T03:35:30.321Z,9.60
2019-01-31T03:36:30.335Z,9.50
2019-01-31T03:37:30.317Z,9.60
2019-01-31T03:38:30.334Z,9.70
2019-01-31T03:39:30.281Z,10.20
2019-01-31T03:40:30.274Z,10.00
2019-01-31T03:41:30.265Z,10.50
2019-01-31T03:42:30.280Z,11.10
2019-01-31T03:43:30.253Z,8.80
2019-01-31T03:44:30.227Z,8.90
2019-01-31T03:45:30.215Z,8.70
2019-01-31T03:46:30.208Z,9.20
2019-01-31T03:47:30.205Z,10.70
2019-01-31T03:48:30.212Z,11.50
2019-01-31T03:49:30.236Z,9.70
2019-01-31T03:50:30.157Z,10.70
2019-01-31T03:51:30.189Z,10.90
2019-01-31T03:52:30.141Z,10.00
2019-01-31T03:53:30.122Z,10.00
2019-01-31T03:54:30.216Z,7.60
2019-01-31T03:55:30.119Z,9.70
2019-01-31T03:56:30.104Z,8.40
2019-01-31T03:57:30.098Z,10.30
2019-01-31T03:58:30.111Z,8.20
2019-01-31T03:59:30.080Z,7.60
2019-01-31T04:00:30.379Z,8.50
2019-01-31T04:01:30.044Z,8.80
2019-01-31T04:02:30.033Z,9.30
2019-01-31T04:03:32.550Z,8.20
2019-01-31T04:04:30.061Z,7.70
2019-01-31T04:05:30.017Z,11.60
2019-01-31T04:06:30.013Z,7.70
2019-01-31T04:07:29.977Z,7.80
2019-01-31T04:08:29.986Z,7.60
2019-01-31T04:09:29.968Z,5.30
2019-01-31T04:10:29.978Z,8.40
2019-01-31T04:11:29.936Z,8.30
2019-01-31T04:12:29.947Z,9.00
2019-01-31T04:13:29.940Z,9.50
2019-01-31T04:14:29.918Z,7.70
2019-01-31T04:15:30.153Z,8.20
2019-01-31T04:16:29.887Z,9.20
2019-01-31T04:17:29.901Z,9.20
2019-01-31T04:18:29.862Z,8.10
2019-01-31T04:19:29.857Z,7.80
2019-01-31T04:20:29.889Z,8.70
2019-01-31T04:21:29.875Z,8.10
2019-01-31T04:22:29.817Z,9.90
2019-01-31T04:23:29.807Z,7.70
2019-01-31T04:24:29.818Z,6.90
2019-01-31T04:25:29.783Z,6.80
2019-01-31T04:26:29.807Z,9.00
2019-01-31T04:27:29.764Z,7.10
2019-01-31T04:28:30.773Z,10.50
2019-01-31T04:29:29.750Z,7.70
2019-01-31T04:30:29.776Z,9.90
2019-01-31T04:31:29.735Z,7.30
2019-01-31T04:32:29.706Z,6.80
2019-01-31T04:33:29.703Z,10.80
2019-01-31T04:34:29.718Z,11.60
2019-01-31T04:35:29.685Z,8.80
2019-01-31T04:36:29.680Z,9.60
2019-01-31T04:37:29.670Z,7.30
2019-01-31T04:38:29.650Z,7.60
2019-01-31T04:39:29.662Z,7.50
2019-01-31T04:40:31.479Z,7.30
2019-01-31T04:41:29.654Z,8.20
2019-01-31T04:42:29.624Z,8.10
2019-01-31T04:43:29.603Z,9.40
2019-01-31T04:44:29.597Z,6.90
2019-01-31T04:45:29.583Z,8.60
2019-01-31T04:46:29.584Z,5.90
2019-01-31T04:47:29.582Z,7.40
2019-01-31T04:48:29.536Z,7.80
2019-01-31T04:49:29.540Z,8.20
2019-01-31T04:50:29.514Z,6.60
2019-01-31T04:51:29.519Z,7.70
2019-01-31T04:52:29.526Z,6.60
2019-01-31T04:53:29.496Z,9.10
2019-01-31T04:54:29.467Z,7.70
2019-01-31T04:55:29.483Z,7.70
2019-01-31T04:56:29.476Z,8.00
2019-01-31T04:57:29.487Z,8.20
2019-01-31T04:58:29.429Z,6.90
2019-01-31T04:59:29.417Z,8.90
2019-01-31T05:00:29.444Z,7.00
2019-01-31T05:01:29.417Z,7.70
2019-01-31T05:02:29.398Z,6.90
2019-01-31T05:03:29.391Z,7.20
2019-01-31T05:04:29.374Z,8.50
2019-01-31T05:05:29.377Z,6.50
2019-01-31T05:06:29.356Z,7.90
2019-01-31T05:07:29.346Z,9.40
2019-01-31T05:08:30.992Z,6.80
2019-01-31T05:09:29.316Z,10.40
2019-01-31T05:10:29.294Z,7.30
2019-01-31T05:11:29.288Z,8.00
2019-01-31T05:12:29.306Z,7.40
2019-01-31T05:13:29.267Z,6.50
2019-01-31T05:14:29.299Z,8.70
2019-01-31T05:15:29.245Z,8.50
2019-01-31T05:16:29.234Z,7.40
2019-01-31T05:17:29.241Z,5.80
2019-01-31T05:18:29.208Z,7.10
2019-01-31T05:19:29.202Z,6.40
2019-01-31T05:20:29.206Z,7.70
2019-01-31T05:21:29.196Z,5.20
2019-01-31T05:22:29.181Z,7.30
2019-01-31T05:23:29.179Z,7.90
2019-01-31T05:24:29.143Z,6.50
2019-01-31T05:25:29.171Z,7.40
2019-01-31T05:26:29.152Z,6.00
2019-01-31T05:27:29.159Z,9.40
2019-01-31T05:28:29.152Z,4.70
2019-01-31T05:29:29.096Z,6.60
2019-01-31T05:30:29.098Z,5.90
2019-01-31T05:31:29.073Z,6.70
2019-01-31T05:32:29.074Z,7.50
2019-01-31T05:33:29.078Z,7.80
2019-01-31T05:34:29.057Z,7.70
2019-01-31T05:35:29.027Z,6.60
2019-01-31T05:36:29.018Z,8.40
2019-01-31T05:37:29.050Z,8.40
2019-01-31T05:38:29.022Z,7.30
2019-01-31T05:39:28.987Z,5.60
2019-01-31T05:40:28.987Z,6.70
2019-01-31T05:41:28.961Z,8.80
2019-01-31T05:42:28.970Z,7.50
2019-01-31T05:43:28.988Z,7.30
2019-01-31T05:44:28.993Z,6.60
2019-01-31T05:45:28.932Z,6.10
2019-01-31T05:46:28.911Z,7.00
2019-01-31T05:47:28.920Z,9.60
2019-01-31T05:48:28.928Z,6.30
2019-01-31T05:49:28.897Z,5.40
2019-01-31T05:50:28.875Z,6.80
2019-01-31T05:51:28.875Z,7.20
2019-01-31T05:52:28.865Z,6.80
2019-01-31T05:53:28.857Z,6.40
2019-01-31T05:54:28.845Z,7.40
2019-01-31T05:55:28.835Z,8.80
2019-01-31T05:56:28.832Z,5.50
2019-01-31T05:57:28.786Z,5.90
2019-01-31T05:58:28.795Z,5.40
2019-01-31T05:59:28.786Z,4.80
2019-01-31T06:00:28.771Z,5.50
2019-01-31T06:01:28.774Z,6.50
2019-01-31T06:02:28.763Z,6.50
2019-01-31T06:03:28.740Z,6.40
2019-01-31T06:04:28.709Z,7.10
2019-01-31T06:05:28.748Z,5.40
2019-01-31T06:06:28.718Z,8.90
2019-01-31T06:07:28.683Z,7.00
2019-01-31T06:08:28.676Z,5.80
2019-01-31T06:09:28.661Z,4.20
2019-01-31T06:10:28.703Z,5.70
2019-01-31T06:11:28.643Z,6.30
2019-01-31T06:12:28.641Z,6.50
2019-01-31T06:13:28.629Z,6.50
2019-01-31T06:14:28.610Z,7.20
2019-01-31T06:15:28.640Z,7.00
2019-01-31T06:16:28.585Z,6.40
2019-01-31T06:17:28.609Z,6.50
2019-01-31T06:18:28.580Z,5.40
2019-01-31T06:19:28.551Z,6.30
2019-01-31T06:20:28.580Z,6.50
2019-01-31T06:21:28.557Z,6.80
2019-01-31T06:22:28.557Z,5.60
2019-01-31T06:23:28.527Z,6.30
2019-01-31T06:24:28.510Z,6.90
2019-01-31T06:25:28.556Z,5.00
2019-01-31T06:26:28.525Z,6.60
2019-01-31T06:27:28.473Z,8.90
2019-01-31T06:28:28.480Z,7.40
2019-01-31T06:29:28.460Z,6.50
2019-01-31T06:30:28.462Z,4.70
2019-01-31T06:31:28.421Z,5.20
2019-01-31T06:32:28.433Z,6.10
2019-01-31T06:33:28.641Z,5.80
2019-01-31T06:34:28.406Z,6.30
2019-01-31T06:35:28.383Z,5.20
2019-01-31T06:36:28.399Z,7.70
2019-01-31T06:37:28.359Z,7.70
2019-01-31T06:38:28.359Z,8.30
2019-01-31T06:39:28.362Z,6.70
2019-01-31T06:40:28.361Z,4.90
2019-01-31T06:41:28.410Z,4.70
2019-01-31T06:42:28.305Z,6.80
2019-01-31T06:43:28.309Z,7.30
2019-01-31T06:44:28.304Z,6.90
2019-01-31T06:45:28.276Z,6.60
2019-01-31T06:46:28.632Z,4.20
2019-01-31T06:47:28.251Z,6.20
2019-01-31T06:48:28.242Z,6.00
2019-01-31T06:49:28.227Z,7.20
2019-01-31T06:50:28.272Z,6.10
2019-01-31T06:51:28.219Z,6.00
2019-01-31T06:52:28.203Z,8.20
2019-01-31T06:53:28.194Z,5.70
2019-01-31T06:54:28.168Z,6.80
2019-01-31T06:55:28.190Z,4.30
2019-01-31T06:56:28.268Z,5.20
2019-01-31T06:57:28.144Z,5.70
2019-01-31T06:58:28.127Z,4.40
2019-01-31T06:59:28.131Z,6.60
2019-01-31T07:00:28.109Z,5.60
2019-01-31T07:01:28.114Z,4.70
2019-01-31T07:02:28.109Z,6.40
2019-01-31T07:03:28.095Z,5.10
2019-01-31T07:04:28.068Z,5.20
2019-01-31T07:05:28.075Z,5.30
2019-01-31T07:06:28.041Z,6.40
2019-01-31T07:07:28.074Z,5.10
2019-01-31T07:08:28.035Z,5.40
2019-01-31T07:09:28.012Z,4.30
2019-01-31T07:10:28.022Z,4.90
2019-01-31T07:11:30.047Z,4.20
2019-01-31T07:12:28.013Z,6.80
2019-01-31T07:13:28.011Z,6.00
2019-01-31T07:14:27.972Z,6.30
2019-01-31T07:15:27.941Z,4.80
2019-01-31T07:16:27.959Z,5.50
2019-01-31T07:17:27.942Z,6.00
2019-01-31T07:18:27.947Z,5.70
2019-01-31T07:19:27.908Z,4.90
2019-01-31T07:20:27.915Z,4.70
2019-01-31T07:21:27.917Z,6.20
2019-01-31T07:22:27.924Z,5.20
2019-01-31T07:23:27.902Z,7.90
2019-01-31T07:24:27.847Z,4.90
2019-01-31T07:25:27.882Z,5.80
2019-01-31T07:26:27.825Z,4.80
2019-01-31T07:27:27.814Z,6.30
2019-01-31T07:28:27.863Z,5.40
2019-01-31T07:29:27.806Z,7.60
2019-01-31T07:30:27.782Z,3.90
2019-01-31T07:31:27.791Z,5.30
2019-01-31T07:32:27.779Z,5.80
2019-01-31T07:33:27.779Z,5.70
2019-01-31T07:34:27.741Z,6.10
2019-01-31T07:35:27.788Z,8.30
2019-01-31T07:36:27.724Z,7.70
2019-01-31T07:37:27.712Z,6.40
2019-01-31T07:38:27.736Z,6.70
2019-01-31T07:39:27.689Z,5.10
2019-01-31T07:40:27.703Z,6.70
2019-01-31T07:41:27.695Z,7.10
2019-01-31T07:42:27.659Z,5.60
2019-01-31T07:43:27.672Z,5.80
2019-01-31T07:44:27.698Z,5.70
2019-01-31T07:45:27.645Z,6.50
2019-01-31T07:46:27.627Z,6.60
2019-01-31T07:47:27.602Z,5.00
2019-01-31T07:48:27.636Z,6.10
2019-01-31T07:49:27.577Z,5.90
2019-01-31T07:50:27.590Z,5.60
2019-01-31T07:51:27.596Z,6.90
2019-01-31T07:52:27.568Z,6.10
2019-01-31T07:53:27.554Z,7.70
2019-01-31T07:54:27.542Z,6.90
2019-01-31T07:55:27.520Z,8.80
2019-01-31T07:56:27.519Z,7.60
2019-01-31T07:57:27.529Z,7.10
2019-01-31T07:58:27.531Z,7.00
2019-01-31T07:59:27.503Z,5.50
2019-01-31T08:00:27.459Z,5.20
2019-01-31T08:01:27.460Z,5.90
2019-01-31T08:02:27.477Z,4.50
2019-01-31T08:03:27.446Z,6.30
2019-01-31T08:04:27.465Z,5.50
2019-01-31T08:05:27.414Z,6.00
2019-01-31T08:06:27.411Z,7.90
2019-01-31T08:07:28.792Z,6.40
2019-01-31T08:08:27.371Z,4.50
2019-01-31T08:09:27.410Z,5.90
2019-01-31T08:10:27.366Z,6.60
2019-01-31T08:11:27.379Z,6.20
2019-01-31T08:12:27.325Z,5.30
2019-01-31T08:13:27.333Z,5.90
2019-01-31T08:14:27.372Z,5.30
2019-01-31T08:15:27.303Z,7.80
2019-01-31T08:16:27.304Z,5.80
2019-01-31T08:17:27.309Z,5.50
2019-01-31T08:18:27.303Z,5.60
2019-01-31T08:19:27.353Z,6.70
2019-01-31T08:20:27.245Z,4.40
2019-01-31T08:21:27.255Z,7.60
2019-01-31T08:22:27.251Z,6.20
2019-01-31T08:23:27.212Z,4.40
2019-01-31T08:24:27.226Z,7.00
2019-01-31T08:25:27.218Z,6.90
2019-01-31T08:26:27.173Z,7.70
2019-01-31T08:27:27.194Z,4.90
2019-01-31T08:28:27.168Z,4.60
2019-01-31T08:29:27.152Z,4.80
2019-01-31T08:30:27.209Z,6.30
2019-01-31T08:31:27.125Z,6.10
2019-01-31T08:32:27.110Z,6.80
2019-01-31T08:33:28.507Z,6.00
2019-01-31T08:34:27.097Z,6.00
2019-01-31T08:35:27.115Z,7.20
2019-01-31T08:36:27.085Z,5.80
2019-01-31T08:37:27.067Z,7.10
2019-01-31T08:38:27.048Z,4.50
2019-01-31T08:39:27.057Z,5.30
2019-01-31T08:40:27.067Z,7.30
2019-01-31T08:41:27.039Z,6.30
2019-01-31T08:42:27.016Z,5.80
2019-01-31T08:43:27.028Z,6.10
2019-01-31T08:44:26.990Z,6.50
2019-01-31T08:45:26.969Z,6.60
2019-01-31T08:46:26.973Z,5.90
2019-01-31T08:47:26.965Z,8.90
2019-01-31T08:48:26.956Z,7.40
2019-01-31T08:49:26.937Z,6.40
2019-01-31T08:50:27.630Z,8.50
2019-01-31T08:51:26.929Z,7.00
2019-01-31T08:52:26.906Z,6.60
2019-01-31T08:53:26.890Z,7.50
2019-01-31T08:54:26.894Z,7.40
2019-01-31T08:55:26.911Z,8.40
2019-01-31T08:56:26.905Z,5.60
2019-01-31T08:57:26.870Z,8.30
2019-01-31T08:58:26.843Z,8.50
2019-01-31T08:59:26.817Z,8.40
2019-01-31T09:00:26.816Z,6.80
2019-01-31T09:01:26.817Z,7.90
2019-01-31T09:02:26.782Z,10.50
2019-01-31T09:03:26.773Z,9.30
2019-01-31T09:04:26.782Z,11.90
2019-01-31T09:05:26.763Z,9.90
2019-01-31T09:06:26.764Z,12.50
2019-01-31T09:07:29.195Z,10.90
2019-01-31T09:08:26.720Z,11.80
2019-01-31T09:09:26.710Z,13.30
2019-01-31T09:10:26.720Z,10.00
2019-01-31T09:11:26.690Z,11.60
2019-01-31T09:12:26.726Z,14.10
2019-01-31T09:13:26.670Z,12.10
2019-01-31T09:14:26.659Z,11.40
2019-01-31T09:15:26.668Z,14.70
2019-01-31T09:16:26.632Z,15.50
2019-01-31T09:17:26.640Z,13.70
2019-01-31T09:18:26.628Z,11.40
2019-01-31T09:19:26.622Z,14.80
2019-01-31T09:20:26.608Z,16.40
2019-01-31T09:21:26.580Z,15.40
2019-01-31T09:22:26.611Z,15.00
2019-01-31T09:23:26.560Z,15.50
2019-01-31T09:24:26.561Z,15.00
2019-01-31T09:25:26.557Z,10.40
2019-01-31T09:26:26.531Z,14.50
2019-01-31T09:27:26.557Z,14.10
2019-01-31T09:28:26.518Z,16.80
2019-01-31T09:29:26.509Z,20.50
2019-01-31T09:30:26.484Z,12.90
2019-01-31T09:31:26.484Z,17.00
2019-01-31T09:32:26.483Z,10.80
2019-01-31T09:33:26.484Z,16.20
2019-01-31T09:34:26.465Z,12.50
2019-01-31T09:35:26.436Z,12.30
2019-01-31T09:36:26.439Z,12.40
2019-01-31T09:37:26.413Z,12.00
2019-01-31T09:38:26.417Z,16.40
2019-01-31T09:39:26.424Z,14.90
2019-01-31T09:40:26.382Z,15.30
2019-01-31T09:41:26.360Z,14.60
2019-01-31T09:42:26.982Z,20.80
2019-01-31T09:43:26.381Z,13.40
2019-01-31T09:44:26.330Z,10.50
2019-01-31T09:45:26.324Z,11.50
2019-01-31T09:46:26.328Z,11.10
2019-01-31T09:47:26.299Z,10.90
2019-01-31T09:48:26.309Z,13.40
2019-01-31T09:49:26.277Z,13.40
2019-01-31T09:50:28.134Z,16.40
2019-01-31T09:51:26.392Z,14.80
2019-01-31T09:52:26.254Z,16.10
2019-01-31T09:53:26.268Z,15.00
2019-01-31T09:54:26.298Z,13.10
2019-01-31T09:55:26.209Z,13.10
2019-01-31T09:56:26.212Z,16.80
2019-01-31T09:57:26.212Z,12.50
2019-01-31T09:58:28.019Z,15.10
2019-01-31T09:59:26.187Z,12.80
2019-01-31T10:00:27.534Z,16.30
2019-01-31T10:01:26.169Z,10.70
2019-01-31T10:02:26.135Z,15.30
2019-01-31T10:03:26.141Z,11.60
2019-01-31T10:04:26.138Z,10.20
2019-01-31T10:05:26.117Z,11.70
2019-01-31T10:06:26.126Z,12.70
2019-01-31T10:07:26.116Z,9.50
2019-01-31T10:08:26.090Z,11.40
2019-01-31T10:09:26.097Z,7.60
2019-01-31T10:10:26.152Z,10.90
2019-01-31T10:11:26.112Z,12.70
2019-01-31T10:12:37.426Z,10.10
2019-01-31T10:13:27.027Z,13.50
2019-01-31T10:14:26.052Z,10.70
2019-01-31T10:15:26.096Z,14.10
2019-01-31T10:16:25.990Z,16.00
2019-01-31T10:17:26.098Z,13.50
2019-01-31T10:18:25.969Z,11.60
2019-01-31T10:19:25.966Z,15.30
2019-01-31T10:20:25.985Z,10.50
2019-01-31T10:21:26.174Z,14.90
2019-01-31T10:22:26.038Z,11.60
2019-01-31T10:23:26.013Z,20.10
2019-01-31T10:24:25.947Z,12.00
2019-01-31T10:25:26.026Z,14.90
2019-01-31T10:26:25.870Z,13.40
2019-01-31T10:27:25.891Z,16.10
2019-01-31T10:28:25.877Z,14.40
2019-01-31T10:29:25.843Z,14.50
2019-01-31T10:30:25.848Z,17.50
2019-01-31T10:31:25.815Z,11.60
2019-01-31T10:32:25.815Z,13.00
2019-01-31T10:33:25.800Z,13.40
2019-01-31T10:34:25.791Z,15.80
2019-01-31T10:35:25.845Z,17.30
2019-01-31T10:36:25.778Z,10.70
2019-01-31T10:37:25.768Z,17.30
2019-01-31T10:38:25.753Z,12.50
2019-01-31T10:39:25.752Z,13.60
2019-01-31T10:40:25.756Z,12.80
2019-01-31T10:41:25.728Z,11.10
2019-01-31T10:42:25.718Z,14.20
2019-01-31T10:43:25.710Z,12.80
2019-01-31T10:44:25.692Z,13.40
2019-01-31T10:45:25.739Z,13.60
2019-01-31T10:46:25.670Z,13.20
2019-01-31T10:47:25.657Z,14.90
2019-01-31T10:48:25.632Z,12.90
2019-01-31T10:49:25.641Z,14.50
2019-01-31T10:50:25.612Z,11.40
2019-01-31T10:51:25.623Z,16.00
2019-01-31T10:52:25.593Z,13.30
2019-01-31T10:53:25.586Z,33.50
2019-01-31T10:54:25.596Z,34.00
2019-01-31T10:55:25.558Z,16.20
2019-01-31T10:56:25.568Z,12.60
2019-01-31T10:57:25.537Z,11.40
2019-01-31T10:58:25.604Z,15.10
2019-01-31T10:59:25.519Z,11.90
2019-01-31T11:00:25.513Z,11.30
2019-01-31T11:01:25.513Z,11.30
2019-01-31T11:02:25.492Z,15.90
2019-01-31T11:03:25.493Z,11.00
2019-01-31T11:04:25.467Z,12.10
2019-01-31T11:05:25.449Z,13.60
2019-01-31T11:06:25.456Z,13.20
2019-01-31T11:07:25.432Z,15.20
2019-01-31T11:08:25.419Z,11.40
2019-01-31T11:09:25.430Z,16.70
2019-01-31T11:10:25.426Z,12.80
2019-01-31T11:11:25.424Z,12.20
2019-01-31T11:12:25.412Z,8.50
2019-01-31T11:13:25.384Z,13.00
2019-01-31T11:14:25.352Z,11.60
2019-01-31T11:15:25.360Z,18.80
2019-01-31T11:16:25.353Z,13.80
2019-01-31T11:17:25.375Z,12.30
2019-01-31T11:18:25.328Z,9.60
2019-01-31T11:19:25.323Z,12.50
2019-01-31T11:20:25.311Z,11.70
2019-01-31T11:21:25.304Z,14.30
2019-01-31T11:22:25.307Z,9.80
2019-01-31T11:23:25.267Z,10.20
2019-01-31T11:24:25.269Z,11.90
2019-01-31T11:25:25.226Z,12.40
2019-01-31T11:26:25.221Z,12.60
2019-01-31T11:27:25.265Z,15.80
2019-01-31T11:28:25.221Z,13.80
2019-01-31T11:29:25.197Z,10.60
2019-01-31T11:30:25.227Z,10.60
2019-01-31T11:31:25.166Z,12.00
2019-01-31T11:32:25.172Z,13.70
2019-01-31T11:33:25.182Z,10.80
2019-01-31T11:34:32.681Z,11.80
2019-01-31T11:35:26.191Z,10.50
2019-01-31T11:36:25.121Z,17.40
2019-01-31T11:37:25.118Z,11.30
2019-01-31T11:38:25.137Z,12.00
2019-01-31T11:39:25.093Z,13.90
2019-01-31T11:40:25.090Z,14.60
2019-01-31T11:41:25.067Z,8.70
2019-01-31T11:42:25.073Z,9.30
2019-01-31T11:43:25.096Z,10.60
2019-01-31T11:44:25.032Z,12.40
2019-01-31T11:45:25.034Z,11.10
2019-01-31T11:46:25.019Z,11.60
2019-01-31T11:47:25.025Z,12.10
2019-01-31T11:48:25.027Z,10.50
2019-01-31T11:49:24.990Z,12.40
2019-01-31T11:50:24.994Z,12.80
2019-01-31T11:51:24.981Z,9.20
2019-01-31T11:52:24.962Z,11.50
2019-01-31T11:53:24.939Z,13.00
2019-01-31T11:54:24.963Z,10.00
2019-01-31T11:55:24.919Z,10.10
2019-01-31T11:56:24.896Z,11.10
2019-01-31T11:57:24.885Z,9.30
2019-01-31T11:58:24.896Z,10.30
2019-01-31T11:59:24.925Z,11.20
2019-01-31T12:00:24.867Z,11.40
2019-01-31T12:01:24.856Z,10.10
2019-01-31T12:02:24.846Z,11.80
2019-01-31T12:03:24.843Z,11.60
2019-01-31T12:04:24.853Z,8.50
2019-01-31T12:05:24.803Z,10.30
2019-01-31T12:06:24.795Z,11.30
2019-01-31T12:07:24.781Z,10.50
2019-01-31T12:08:24.775Z,10.40
2019-01-31T12:09:24.792Z,10.50
2019-01-31T12:10:24.751Z,11.60
2019-01-31T12:11:24.746Z,9.40
2019-01-31T12:12:24.718Z,11.10
2019-01-31T12:13:24.719Z,15.10
2019-01-31T12:14:24.729Z,10.50
2019-01-31T12:15:24.738Z,8.40
2019-01-31T12:16:24.672Z,11.40
2019-01-31T12:17:24.665Z,11.70
2019-01-31T12:18:24.662Z,10.20
2019-01-31T12:19:24.661Z,10.00
2019-01-31T12:20:24.668Z,8.70
2019-01-31T12:21:24.640Z,12.90
2019-01-31T12:22:24.627Z,11.00
2019-01-31T12:23:24.597Z,11.10
2019-01-31T12:24:24.623Z,11.60
2019-01-31T12:25:24.592Z,11.40
2019-01-31T12:26:24.581Z,13.20
2019-01-31T12:27:24.593Z,13.30
2019-01-31T12:28:24.548Z,11.20
2019-01-31T12:29:24.534Z,9.80
2019-01-31T12:30:24.558Z,11.30
2019-01-31T12:31:24.520Z,11.20
2019-01-31T12:32:24.522Z,13.30
2019-01-31T12:33:24.535Z,19.20
2019-01-31T12:34:24.492Z,21.50
2019-01-31T12:35:24.554Z,13.00
2019-01-31T12:36:24.463Z,11.30
2019-01-31T12:37:24.460Z,13.30
2019-01-31T12:38:24.443Z,13.60
2019-01-31T12:39:24.442Z,14.70
2019-01-31T12:40:24.442Z,16.90
2019-01-31T12:41:24.402Z,13.20
2019-01-31T12:42:24.402Z,13.90
2019-01-31T12:43:34.806Z,13.70
2019-01-31T12:44:25.389Z,18.30
2019-01-31T12:45:24.398Z,17.30
2019-01-31T12:46:24.356Z,21.80
2019-01-31T12:47:24.414Z,17.20
2019-01-31T12:48:24.343Z,14.50
2019-01-31T12:49:24.319Z,13.70
2019-01-31T12:50:24.449Z,12.50
2019-01-31T12:51:24.312Z,14.50
2019-01-31T12:52:24.287Z,14.30
2019-01-31T12:53:24.269Z,14.50
2019-01-31T12:54:24.271Z,16.50
2019-01-31T12:55:24.271Z,15.10
2019-01-31T12:56:24.268Z,11.70
2019-01-31T12:57:24.223Z,13.50
2019-01-31T12:58:33.291Z,15.80
2019-01-31T12:59:25.215Z,13.70
2019-01-31T13:00:24.288Z,13.50
2019-01-31T13:01:24.213Z,12.00
2019-01-31T13:02:24.167Z,11.00
2019-01-31T13:03:24.172Z,15.10
2019-01-31T13:04:24.182Z,12.80
2019-01-31T13:05:24.147Z,12.90
2019-01-31T13:06:24.150Z,14.50
2019-01-31T13:07:24.122Z,13.60
2019-01-31T13:08:24.124Z,13.90
2019-01-31T13:09:24.115Z,15.10
2019-01-31T13:10:24.084Z,13.40
2019-01-31T13:11:24.112Z,16.90
2019-01-31T13:12:24.058Z,13.70
2019-01-31T13:13:24.068Z,13.30
2019-01-31T13:14:24.042Z,14.40
2019-01-31T13:15:24.055Z,14.40
2019-01-31T13:16:24.034Z,13.20
2019-01-31T13:17:24.035Z,14.20
2019-01-31T13:18:24.048Z,12.60
2019-01-31T13:19:23.986Z,12.90
2019-01-31T13:20:23.984Z,14.00
2019-01-31T13:21:23.995Z,14.20
2019-01-31T13:22:23.990Z,13.00
2019-01-31T13:23:23.952Z,14.00
2019-01-31T13:24:23.943Z,14.50
2019-01-31T13:25:23.934Z,14.60
2019-01-31T13:26:23.945Z,14.30
2019-01-31T13:27:23.917Z,14.90
2019-01-31T13:28:23.894Z,13.80
2019-01-31T13:29:23.879Z,13.40
2019-01-31T13:30:23.879Z,13.20
2019-01-31T13:31:23.881Z,13.60
2019-01-31T13:32:23.883Z,11.90
2019-01-31T13:33:23.842Z,13.50
2019-01-31T13:34:23.859Z,13.70
2019-01-31T13:35:23.823Z,13.00
2019-01-31T13:36:23.813Z,11.60
2019-01-31T13:37:23.831Z,12.30
2019-01-31T13:38:23.799Z,11.30
2019-01-31T13:39:23.776Z,11.50
2019-01-31T13:40:23.771Z,11.40
2019-01-31T13:41:23.783Z,13.10
2019-01-31T13:42:23.807Z,12.40
2019-01-31T13:43:23.723Z,13.90
2019-01-31T13:44:23.727Z,13.50
2019-01-31T13:45:23.723Z,13.30
2019-01-31T13:46:23.741Z,12.10
2019-01-31T13:47:23.679Z,13.50
2019-01-31T13:48:23.725Z,12.00
2019-01-31T13:49:23.662Z,13.70
2019-01-31T13:50:23.680Z,13.40
2019-01-31T13:51:23.639Z,11.10
2019-01-31T13:52:23.650Z,10.60
2019-01-31T13:53:23.653Z,10.00
2019-01-31T13:54:23.631Z,11.60
2019-01-31T13:55:23.595Z,12.20
2019-01-31T13:56:23.611Z,9.90
2019-01-31T13:57:23.583Z,11.00
2019-01-31T13:58:23.594Z,12.20
2019-01-31T13:59:23.557Z,10.60